sensor_id;sensor_type;location;lat;lon;timestamp;pressure;altitude;pressure_sealevel;temperature;humidity
61710;BME280;47633;51.494;5.386;2023-03-22T00:01:11;100915.28;;;19.40;45.07
61710;BME280;47633;51.494;5.386;2023-03-22T00:03:37;100909.03;;;19.41;45.18
61710;BME280;47633;51.494;5.386;2023-03-22T00:06:03;100898.59;;;19.39;44.88
61710;BME280;47633;51.494;5.386;2023-03-22T00:08:28;100895.38;;;19.36;45.04
61710;BME280;47633;51.494;5.386;2023-03-22T00:10:54;100901.38;;;19.38;45.05
61710;BME280;47633;51.494;5.386;2023-03-22T00:13:19;100892.03;;;19.34;44.93
61710;BME280;47633;51.494;5.386;2023-03-22T00:15:45;100903.16;;;19.37;44.78
61710;BME280;47633;51.494;5.386;2023-03-22T00:18:13;100899.69;;;19.37;44.81
61710;BME280;47633;51.494;5.386;2023-03-22T00:20:46;100885.91;;;19.33;44.76
61710;BME280;47633;51.494;5.386;2023-03-22T00:23:12;100891.19;;;19.33;44.93
61710;BME280;47633;51.494;5.386;2023-03-22T00:25:37;100882.56;;;19.31;44.73
61710;BME280;47633;51.494;5.386;2023-03-22T00:28:03;100884.09;;;19.34;44.62
61710;BME280;47633;51.494;5.386;2023-03-22T00:30:28;100882.56;;;19.31;44.67
61710;BME280;47633;51.494;5.386;2023-03-22T00:32:53;100867.09;;;19.27;44.57
61710;BME280;47633;51.494;5.386;2023-03-22T00:35:18;100867.69;;;19.30;44.61
61710;BME280;47633;51.494;5.386;2023-03-22T00:37:44;100871.41;;;19.28;44.39
61710;BME280;47633;51.494;5.386;2023-03-22T00:40:11;100864.47;;;19.27;44.51
61710;BME280;47633;51.494;5.386;2023-03-22T00:42:38;100860.00;;;19.27;44.62
61710;BME280;47633;51.494;5.386;2023-03-22T00:45:06;100855.81;;;19.25;44.48
61710;BME280;47633;51.494;5.386;2023-03-22T00:47:32;100854.97;;;19.24;44.52
61710;BME280;47633;51.494;5.386;2023-03-22T00:49:57;100851.50;;;19.24;44.32
61710;BME280;47633;51.494;5.386;2023-03-22T00:52:22;100845.50;;;19.21;44.38
61710;BME280;47633;51.494;5.386;2023-03-22T00:54:48;100841.22;;;19.20;44.19
61710;BME280;47633;51.494;5.386;2023-03-22T00:57:13;100838.44;;;19.22;44.19
61710;BME280;47633;51.494;5.386;2023-03-22T00:59:39;100837.56;;;19.21;44.27
61710;BME280;47633;51.494;5.386;2023-03-22T01:02:06;100823.69;;;19.19;44.34
61710;BME280;47633;51.494;5.386;2023-03-22T01:04:32;100830.78;;;19.19;44.21
61710;BME280;47633;51.494;5.386;2023-03-22T01:06:59;100828.97;;;19.19;44.30
61710;BME280;47633;51.494;5.386;2023-03-22T01:09:29;100830.78;;;19.19;44.23
61710;BME280;47633;51.494;5.386;2023-03-22T01:11:56;100824.66;;;19.18;44.20
61710;BME280;47633;51.494;5.386;2023-03-22T01:14:24;100815.06;;;19.17;44.13
61710;BME280;47633;51.494;5.386;2023-03-22T01:16:50;100815.06;;;19.17;44.15
61710;BME280;47633;51.494;5.386;2023-03-22T01:19:15;100811.72;;;19.15;44.22
61710;BME280;47633;51.494;5.386;2023-03-22T01:21:40;100809.06;;;19.15;44.11
61710;BME280;47633;51.494;5.386;2023-03-22T01:24:06;100802.09;;;19.14;44.11
61710;BME280;47633;51.494;5.386;2023-03-22T01:26:32;100791.53;;;19.14;44.28
61710;BME280;47633;51.494;5.386;2023-03-22T01:28:57;100785.31;;;19.15;44.21
61710;BME280;47633;51.494;5.386;2023-03-22T01:31:23;100778.34;;;19.14;44.25
61710;BME280;47633;51.494;5.386;2023-03-22T01:33:48;100760.25;;;19.10;44.18
61710;BME280;47633;51.494;5.386;2023-03-22T01:36:13;100762.75;;;19.11;44.33
61710;BME280;47633;51.494;5.386;2023-03-22T01:38:38;100766.09;;;19.13;44.26
61710;BME280;47633;51.494;5.386;2023-03-22T01:41:04;100762.75;;;19.11;44.26
61710;BME280;47633;51.494;5.386;2023-03-22T01:43:29;100751.34;;;19.11;44.45
61710;BME280;47633;51.494;5.386;2023-03-22T01:45:55;100752.31;;;19.10;44.32
61710;BME280;47633;51.494;5.386;2023-03-22T01:48:30;100752.44;;;19.08;44.23
61710;BME280;47633;51.494;5.386;2023-03-22T01:51:03;100749.81;;;19.08;44.28
61710;BME280;47633;51.494;5.386;2023-03-22T01:53:35;100733.25;;;19.06;44.34
61710;BME280;47633;51.494;5.386;2023-03-22T01:56:03;100733.25;;;19.06;44.47
61710;BME280;47633;51.494;5.386;2023-03-22T01:58:30;100734.22;;;19.05;44.39
61710;BME280;47633;51.494;5.386;2023-03-22T02:00:57;100730.63;;;19.06;44.54
61710;BME280;47633;51.494;5.386;2023-03-22T02:03:35;100719.47;;;19.02;44.33
61710;BME280;47633;51.494;5.386;2023-03-22T02:06:02;100715.03;;;19.03;44.39
61710;BME280;47633;51.494;5.386;2023-03-22T02:08:28;100709.63;;;19.05;44.41
61710;BME280;47633;51.494;5.386;2023-03-22T02:10:54;100728.94;;;19.05;44.44
61710;BME280;47633;51.494;5.386;2023-03-22T02:13:29;100728.25;;;19.03;44.78
61710;BME280;47633;51.494;5.386;2023-03-22T02:16:12;100707.94;;;19.03;44.51
61710;BME280;47633;51.494;5.386;2023-03-22T02:35:23;100696.00;;;18.99;44.38
61710;BME280;47633;51.494;5.386;2023-03-22T02:38:13;100700.41;;;18.99;44.75
61710;BME280;47633;51.494;5.386;2023-03-22T02:43:29;100690.97;;;18.96;44.73
61710;BME280;47633;51.494;5.386;2023-03-22T02:51:36;100689.28;;;18.95;44.65
61710;BME280;47633;51.494;5.386;2023-03-22T02:54:16;100680.69;;;18.93;44.44
61710;BME280;47633;51.494;5.386;2023-03-22T02:57:09;100680.53;;;18.95;44.74
61710;BME280;47633;51.494;5.386;2023-03-22T02:59:37;100662.19;;;18.93;44.54
61710;BME280;47633;51.494;5.386;2023-03-22T03:02:07;100668.16;;;18.95;44.63
61710;BME280;47633;51.494;5.386;2023-03-22T03:04:37;100674.53;;;18.93;44.66
61710;BME280;47633;51.494;5.386;2023-03-22T03:07:08;100662.31;;;18.92;44.76
61710;BME280;47633;51.494;5.386;2023-03-22T03:09:36;100663.16;;;18.92;44.57
61710;BME280;47633;51.494;5.386;2023-03-22T03:12:08;100666.75;;;18.91;44.63
61710;BME280;47633;51.494;5.386;2023-03-22T03:14:33;100657.19;;;18.90;44.68
61710;BME280;47633;51.494;5.386;2023-03-22T03:17:08;100658.00;;;18.91;44.67
61710;BME280;47633;51.494;5.386;2023-03-22T03:23:09;100658.97;;;18.90;44.61
61710;BME280;47633;51.494;5.386;2023-03-22T03:31:26;100653.81;;;18.88;44.78
61710;BME280;47633;51.494;5.386;2023-03-22T03:34:18;100660.78;;;18.89;44.74
61710;BME280;47633;51.494;5.386;2023-03-22T03:37:07;100653.13;;;18.86;44.73
61710;BME280;47633;51.494;5.386;2023-03-22T03:39:38;100650.34;;;18.88;44.42
61710;BME280;47633;51.494;5.386;2023-03-22T03:42:11;100646.88;;;18.87;44.69
61710;BME280;47633;51.494;5.386;2023-03-22T03:44:38;100646.03;;;18.87;44.32
61710;BME280;47633;51.494;5.386;2023-03-22T03:47:06;100649.53;;;18.87;44.56
61710;BME280;47633;51.494;5.386;2023-03-22T03:49:32;100654.81;;;18.87;44.51
61710;BME280;47633;51.494;5.386;2023-03-22T03:51:58;100656.59;;;18.87;44.49
61710;BME280;47633;51.494;5.386;2023-03-22T03:54:23;100667.16;;;18.87;44.33
61710;BME280;47633;51.494;5.386;2023-03-22T03:56:49;100644.19;;;18.77;44.37
61710;BME280;47633;51.494;5.386;2023-03-22T03:59:15;100656.84;;;18.83;44.54
61710;BME280;47633;51.494;5.386;2023-03-22T04:01:42;100660.44;;;18.82;44.37
61710;BME280;47633;51.494;5.386;2023-03-22T04:04:23;100657.94;;;18.81;44.63
61710;BME280;47633;51.494;5.386;2023-03-22T04:06:53;100655.31;;;18.81;44.52
61710;BME280;47633;51.494;5.386;2023-03-22T04:09:22;100657.81;;;18.82;44.67
61710;BME280;47633;51.494;5.386;2023-03-22T04:11:47;100652.78;;;18.79;44.60
61710;BME280;47633;51.494;5.386;2023-03-22T04:14:13;100656.13;;;18.81;44.47
61710;BME280;47633;51.494;5.386;2023-03-22T04:16:38;100651.72;;;18.82;44.30
61710;BME280;47633;51.494;5.386;2023-03-22T04:19:03;100656.13;;;18.81;44.38
61710;BME280;47633;51.494;5.386;2023-03-22T04:21:29;100642.50;;;18.76;44.35
61710;BME280;47633;51.494;5.386;2023-03-22T04:23:54;100642.50;;;18.76;44.44
61710;BME280;47633;51.494;5.386;2023-03-22T04:26:20;100649.19;;;18.80;44.30
61710;BME280;47633;51.494;5.386;2023-03-22T04:28:45;100645.00;;;18.78;44.08
61710;BME280;47633;51.494;5.386;2023-03-22T04:31:11;100639.59;;;18.79;44.31
61710;BME280;47633;51.494;5.386;2023-03-22T04:33:36;100637.91;;;18.78;44.19
61710;BME280;47633;51.494;5.386;2023-03-22T04:36:05;100638.19;;;18.75;44.28
61710;BME280;47633;51.494;5.386;2023-03-22T04:38:31;100631.94;;;18.76;44.53
61710;BME280;47633;51.494;5.386;2023-03-22T04:40:56;100631.94;;;18.76;44.46
61710;BME280;47633;51.494;5.386;2023-03-22T04:43:22;100632.91;;;18.75;44.33
61710;BME280;47633;51.494;5.386;2023-03-22T04:45:48;100630.38;;;18.74;44.35
61710;BME280;47633;51.494;5.386;2023-03-22T04:48:13;100631.13;;;18.76;44.44
61710;BME280;47633;51.494;5.386;2023-03-22T04:50:38;100630.25;;;18.75;44.27
61710;BME280;47633;51.494;5.386;2023-03-22T04:53:05;100638.03;;;18.77;44.46
61710;BME280;47633;51.494;5.386;2023-03-22T04:55:30;100626.66;;;18.76;44.37
61710;BME280;47633;51.494;5.386;2023-03-22T04:57:55;100631.25;;;18.74;44.40
61710;BME280;47633;51.494;5.386;2023-03-22T05:00:21;100624.16;;;18.75;44.48
61710;BME280;47633;51.494;5.386;2023-03-22T05:02:46;100629.44;;;18.75;44.19
61710;BME280;47633;51.494;5.386;2023-03-22T05:05:12;100628.47;;;18.76;44.47
61710;BME280;47633;51.494;5.386;2023-03-22T05:07:37;100624.16;;;18.75;44.44
61710;BME280;47633;51.494;5.386;2023-03-22T05:10:04;100620.56;;;18.76;44.34
61710;BME280;47633;51.494;5.386;2023-03-22T05:12:29;100624.84;;;18.77;44.46
61710;BME280;47633;51.494;5.386;2023-03-22T05:14:55;100624.28;;;18.73;44.68
61710;BME280;47633;51.494;5.386;2023-03-22T05:17:21;100624.97;;;18.75;44.56
61710;BME280;47633;51.494;5.386;2023-03-22T05:19:46;100610.00;;;18.76;44.29
61710;BME280;47633;51.494;5.386;2023-03-22T05:22:11;100613.59;;;18.75;44.28
61710;BME280;47633;51.494;5.386;2023-03-22T05:24:38;100613.59;;;18.75;44.12
61710;BME280;47633;51.494;5.386;2023-03-22T05:27:03;100616.50;;;18.72;44.26
61710;BME280;47633;51.494;5.386;2023-03-22T05:29:30;100617.31;;;18.72;44.09
61710;BME280;47633;51.494;5.386;2023-03-22T05:32:02;100612.03;;;18.72;44.01
61710;BME280;47633;51.494;5.386;2023-03-22T05:34:27;100624.41;;;18.72;44.21
61710;BME280;47633;51.494;5.386;2023-03-22T05:37:00;100614.38;;;18.65;44.06
61710;BME280;47633;51.494;5.386;2023-03-22T05:39:25;100618.31;;;18.71;43.96
61710;BME280;47633;51.494;5.386;2023-03-22T05:41:50;100613.03;;;18.71;43.96
61710;BME280;47633;51.494;5.386;2023-03-22T05:44:16;100608.72;;;18.70;44.30
61710;BME280;47633;51.494;5.386;2023-03-22T05:46:41;100613.03;;;18.71;44.14
61710;BME280;47633;51.494;5.386;2023-03-22T05:49:06;100607.03;;;18.69;44.01
61710;BME280;47633;51.494;5.386;2023-03-22T05:51:32;100607.31;;;18.66;43.96
61710;BME280;47633;51.494;5.386;2023-03-22T05:53:58;100616.63;;;18.70;43.99
61710;BME280;47633;51.494;5.386;2023-03-22T05:56:23;100616.06;;;18.66;44.06
61710;BME280;47633;51.494;5.386;2023-03-22T05:58:49;100612.47;;;18.67;44.14
61710;BME280;47633;51.494;5.386;2023-03-22T06:01:14;100625.69;;;18.67;44.14
61710;BME280;47633;51.494;5.386;2023-03-22T06:03:41;100629.13;;;18.68;43.97
61710;BME280;47633;51.494;5.386;2023-03-22T06:06:07;100623.31;;;18.64;43.90
61710;BME280;47633;51.494;5.386;2023-03-22T06:08:35;100616.19;;;18.65;43.88
61710;BME280;47633;51.494;5.386;2023-03-22T06:11:02;100618.84;;;18.65;43.93
61710;BME280;47633;51.494;5.386;2023-03-22T06:13:27;100613.84;;;18.62;43.99
61710;BME280;47633;51.494;5.386;2023-03-22T06:15:52;100616.47;;;18.62;43.87
61710;BME280;47633;51.494;5.386;2023-03-22T06:18:18;100609.38;;;18.62;44.52
61710;BME280;47633;51.494;5.386;2023-03-22T06:20:43;100606.19;;;18.59;44.41
61710;BME280;47633;51.494;5.386;2023-03-22T06:23:09;100614.53;;;18.64;44.25
61710;BME280;47633;51.494;5.386;2023-03-22T06:25:34;100616.06;;;18.66;44.37
61710;BME280;47633;51.494;5.386;2023-03-22T06:27:59;100615.94;;;18.68;44.17
61710;BME280;47633;51.494;5.386;2023-03-22T06:30:25;100615.53;;;18.73;44.40
61710;BME280;47633;51.494;5.386;2023-03-22T06:32:51;100611.22;;;18.72;44.47
61710;BME280;47633;51.494;5.386;2023-03-22T06:35:17;100617.06;;;18.75;44.34
61710;BME280;47633;51.494;5.386;2023-03-22T06:37:42;100607.22;;;18.77;44.51
61710;BME280;47633;51.494;5.386;2023-03-22T06:40:08;100609.72;;;18.79;44.39
61710;BME280;47633;51.494;5.386;2023-03-22T06:42:33;100614.75;;;18.82;44.54
61710;BME280;47633;51.494;5.386;2023-03-22T06:44:59;100619.88;;;18.83;44.46
61710;BME280;47633;51.494;5.386;2023-03-22T06:47:25;100627.81;;;18.83;44.34
61710;BME280;47633;51.494;5.386;2023-03-22T06:49:51;100621.56;;;18.84;44.41
61710;BME280;47633;51.494;5.386;2023-03-22T06:52:16;100620.34;;;18.89;44.59
61710;BME280;47633;51.494;5.386;2023-03-22T06:54:41;100615.06;;;18.89;44.27
61710;BME280;47633;51.494;5.386;2023-03-22T06:57:07;100617.31;;;18.93;44.39
61710;BME280;47633;51.494;5.386;2023-03-22T06:59:32;100610.06;;;18.95;44.49
61710;BME280;47633;51.494;5.386;2023-03-22T07:01:57;100617.84;;;18.97;44.49
61710;BME280;47633;51.494;5.386;2023-03-22T07:04:23;100618.81;;;18.96;44.29
61710;BME280;47633;51.494;5.386;2023-03-22T07:06:49;100609.78;;;18.98;44.22
61710;BME280;47633;51.494;5.386;2023-03-22T07:09:14;100620.91;;;19.02;44.25
61710;BME280;47633;51.494;5.386;2023-03-22T07:11:40;100610.34;;;19.02;44.26
61710;BME280;47633;51.494;5.386;2023-03-22T07:14:05;100595.78;;;18.98;44.14
61710;BME280;47633;51.494;5.386;2023-03-22T07:16:31;100617.03;;;19.06;44.07
61710;BME280;47633;51.494;5.386;2023-03-22T07:18:56;100609.25;;;19.05;44.24
61710;BME280;47633;51.494;5.386;2023-03-22T07:21:21;100616.19;;;19.06;44.19
61710;BME280;47633;51.494;5.386;2023-03-22T07:23:46;100615.22;;;19.07;44.15
61710;BME280;47633;51.494;5.386;2023-03-22T07:26:12;100609.41;;;19.03;44.09
61710;BME280;47633;51.494;5.386;2023-03-22T07:28:38;100622.06;;;19.09;43.97
61710;BME280;47633;51.494;5.386;2023-03-22T07:31:07;100622.06;;;19.09;43.81
61710;BME280;47633;51.494;5.386;2023-03-22T07:33:36;100621.19;;;19.09;44.09
61710;BME280;47633;51.494;5.386;2023-03-22T07:36:01;100623.03;;;19.08;44.00
61710;BME280;47633;51.494;5.386;2023-03-22T07:38:26;100628.16;;;19.10;44.03
61710;BME280;47633;51.494;5.386;2023-03-22T07:40:52;100622.88;;;19.10;43.99
61710;BME280;47633;51.494;5.386;2023-03-22T07:43:21;100622.19;;;19.08;43.89
61710;BME280;47633;51.494;5.386;2023-03-22T07:45:50;100630.25;;;19.06;43.87
61710;BME280;47633;51.494;5.386;2023-03-22T07:48:17;100606.88;;;19.01;43.79
61710;BME280;47633;51.494;5.386;2023-03-22T07:50:43;100619.81;;;19.05;43.96
61710;BME280;47633;51.494;5.386;2023-03-22T07:53:09;100618.69;;;19.07;44.05
61710;BME280;47633;51.494;5.386;2023-03-22T07:55:35;100620.50;;;19.07;43.87
61710;BME280;47633;51.494;5.386;2023-03-22T07:58:01;100620.38;;;19.08;43.72
61710;BME280;47633;51.494;5.386;2023-03-22T08:00:28;100615.38;;;19.05;43.66
61710;BME280;47633;51.494;5.386;2023-03-22T08:02:53;100630.13;;;19.08;43.52
61710;BME280;47633;51.494;5.386;2023-03-22T08:05:18;100620.91;;;19.02;43.99
61710;BME280;47633;51.494;5.386;2023-03-22T08:07:44;100625.66;;;19.08;44.01
61710;BME280;47633;51.494;5.386;2023-03-22T08:10:10;100627.34;;;19.09;44.14
61710;BME280;47633;51.494;5.386;2023-03-22T08:12:35;100619.56;;;19.08;44.28
61710;BME280;47633;51.494;5.386;2023-03-22T08:15:01;100625.66;;;19.08;44.46
61710;BME280;47633;51.494;5.386;2023-03-22T08:17:27;100628.16;;;19.10;44.35
61710;BME280;47633;51.494;5.386;2023-03-22T08:19:54;100625.38;;;19.11;44.45
61710;BME280;47633;51.494;5.386;2023-03-22T08:22:19;100622.75;;;19.11;44.59
61710;BME280;47633;51.494;5.386;2023-03-22T08:24:52;100626.94;;;19.14;44.70
61710;BME280;47633;51.494;5.386;2023-03-22T08:27:18;100627.75;;;19.14;44.57
61710;BME280;47633;51.494;5.386;2023-03-22T08:29:44;100619.00;;;19.14;44.63
61710;BME280;47633;51.494;5.386;2023-03-22T08:32:11;100636.50;;;19.15;44.65
61710;BME280;47633;51.494;5.386;2023-03-22T08:34:38;100625.25;;;19.13;45.05
61710;BME280;47633;51.494;5.386;2023-03-22T08:37:04;100613.88;;;19.12;44.87
61710;BME280;47633;51.494;5.386;2023-03-22T08:39:30;100602.31;;;19.13;44.96
61710;BME280;47633;51.494;5.386;2023-03-22T08:41:56;100599.81;;;19.12;45.26
61710;BME280;47633;51.494;5.386;2023-03-22T08:44:21;100607.31;;;19.16;45.28
61710;BME280;47633;51.494;5.386;2023-03-22T08:46:46;100609.81;;;19.18;44.97
61710;BME280;47633;51.494;5.386;2023-03-22T08:49:12;100612.19;;;19.21;44.96
61710;BME280;47633;51.494;5.386;2023-03-22T08:51:38;100608.03;;;19.28;44.78
61710;BME280;47633;51.494;5.386;2023-03-22T08:54:03;100608.59;;;19.32;44.64
61710;BME280;47633;51.494;5.386;2023-03-22T08:56:29;100615.69;;;19.41;44.37
61710;BME280;47633;51.494;5.386;2023-03-22T08:58:56;100608.59;;;19.42;44.25
61710;BME280;47633;51.494;5.386;2023-03-22T09:01:21;100613.59;;;19.45;44.60
61710;BME280;47633;51.494;5.386;2023-03-22T09:03:47;100604.56;;;19.47;44.33
61710;BME280;47633;51.494;5.386;2023-03-22T09:06:13;100606.09;;;19.50;44.08
61710;BME280;47633;51.494;5.386;2023-03-22T09:08:38;100604.97;;;19.52;44.16
61710;BME280;47633;51.494;5.386;2023-03-22T09:11:08;100602.47;;;19.51;44.18
61710;BME280;47633;51.494;5.386;2023-03-22T09:13:33;100598.03;;;19.51;44.07
61710;BME280;47633;51.494;5.386;2023-03-22T09:15:58;100590.38;;;19.48;44.24
61710;BME280;47633;51.494;5.386;2023-03-22T09:18:24;100601.66;;;19.50;44.23
61710;BME280;47633;51.494;5.386;2023-03-22T09:20:50;100606.50;;;19.55;43.95
61710;BME280;47633;51.494;5.386;2023-03-22T09:23:16;100593.41;;;19.53;44.04
61710;BME280;47633;51.494;5.386;2023-03-22T09:25:42;100585.09;;;19.48;44.19
61710;BME280;47633;51.494;5.386;2023-03-22T09:28:09;100592.03;;;19.49;44.23
61710;BME280;47633;51.494;5.386;2023-03-22T09:30:35;100591.63;;;19.54;44.16
61710;BME280;47633;51.494;5.386;2023-03-22T09:33:01;100586.88;;;19.57;44.05
61710;BME280;47633;51.494;5.386;2023-03-22T09:35:26;100587.44;;;19.61;43.84
61710;BME280;47633;51.494;5.386;2023-03-22T09:37:52;100583.97;;;19.61;43.91
61710;BME280;47633;51.494;5.386;2023-03-22T09:40:19;100591.63;;;19.64;43.83
61710;BME280;47633;51.494;5.386;2023-03-22T09:42:51;100581.47;;;19.59;43.90
61710;BME280;47633;51.494;5.386;2023-03-22T09:45:33;100580.78;;;19.57;43.73
61710;BME280;47633;51.494;5.386;2023-03-22T09:48:16;100583.56;;;19.55;43.86
61710;BME280;47633;51.494;5.386;2023-03-22T09:50:47;100573.00;;;19.55;43.88
61710;BME280;47633;51.494;5.386;2023-03-22T09:53:14;100583.56;;;19.55;43.78
61710;BME280;47633;51.494;5.386;2023-03-22T09:55:46;100591.34;;;19.57;44.08
61710;BME280;47633;51.494;5.386;2023-03-22T09:58:35;100581.06;;;19.54;44.28
61710;BME280;47633;51.494;5.386;2023-03-22T10:06:34;100587.72;;;19.58;44.08
61710;BME280;47633;51.494;5.386;2023-03-22T10:09:21;100584.66;;;19.53;44.24
61710;BME280;47633;51.494;5.386;2023-03-22T10:12:12;100579.53;;;19.51;44.79
61710;BME280;47633;51.494;5.386;2023-03-22T10:14:58;100597.47;;;19.48;44.90
61710;BME280;47633;51.494;5.386;2023-03-22T10:17:27;100586.22;;;19.46;44.81
61710;BME280;47633;51.494;5.386;2023-03-22T10:20:04;100590.78;;;19.44;44.87
61710;BME280;47633;51.494;5.386;2023-03-22T10:22:36;100600.66;;;19.42;45.01
61710;BME280;47633;51.494;5.386;2023-03-22T10:25:05;100585.91;;;19.39;45.42
61710;BME280;47633;51.494;5.386;2023-03-22T10:27:32;100597.88;;;19.43;45.30
61710;BME280;47633;51.494;5.386;2023-03-22T10:30:00;100613.06;;;19.41;45.30
61710;BME280;47633;51.494;5.386;2023-03-22T10:33:03;100619.44;;;19.38;45.23
61710;BME280;47633;51.494;5.386;2023-03-22T10:35:30;100614.84;;;19.40;45.36
61710;BME280;47633;51.494;5.386;2023-03-22T10:38:01;100609.28;;;19.34;45.22
61710;BME280;47633;51.494;5.386;2023-03-22T10:40:31;100608.19;;;19.36;45.33
61710;BME280;47633;51.494;5.386;2023-03-22T10:43:00;100609.28;;;19.34;45.26
61710;BME280;47633;51.494;5.386;2023-03-22T10:45:30;100611.09;;;19.33;45.27
61710;BME280;47633;51.494;5.386;2023-03-22T10:48:01;100613.75;;;19.33;45.71
61710;BME280;47633;51.494;5.386;2023-03-22T10:50:30;100609.56;;;19.31;45.50
61710;BME280;47633;51.494;5.386;2023-03-22T10:53:11;100605.13;;;19.31;45.79
61710;BME280;47633;51.494;5.386;2023-03-22T10:55:41;100606.38;;;19.37;45.95
61710;BME280;47633;51.494;5.386;2023-03-22T10:58:13;100609.41;;;19.42;45.51
61710;BME280;47633;51.494;5.386;2023-03-22T11:00:50;100609.56;;;19.40;45.86
61710;BME280;47633;51.494;5.386;2023-03-22T11:03:29;100614.00;;;19.40;46.09
61710;BME280;47633;51.494;5.386;2023-03-22T11:06:06;100607.91;;;19.39;46.08
61710;BME280;47633;51.494;5.386;2023-03-22T11:08:39;100609.00;;;19.37;46.15
61710;BME280;47633;51.494;5.386;2023-03-22T11:11:06;100608.03;;;19.38;46.15
61710;BME280;47633;51.494;5.386;2023-03-22T11:13:41;100600.66;;;19.42;46.34
61710;BME280;47633;51.494;5.386;2023-03-22T11:16:06;100606.50;;;19.45;46.20
61710;BME280;47633;51.494;5.386;2023-03-22T11:18:33;100597.06;;;19.43;46.19
61710;BME280;47633;51.494;5.386;2023-03-22T11:21:07;100602.34;;;19.43;46.53
61710;BME280;47633;51.494;5.386;2023-03-22T11:23:34;100604.13;;;19.42;46.27
61710;BME280;47633;51.494;5.386;2023-03-22T11:26:09;100594.56;;;19.41;46.55
61710;BME280;47633;51.494;5.386;2023-03-22T11:28:39;100591.63;;;19.44;46.47
61710;BME280;47633;51.494;5.386;2023-03-22T11:31:08;100597.47;;;19.48;46.39
61710;BME280;47633;51.494;5.386;2023-03-22T11:33:35;100594.69;;;19.49;46.41
61710;BME280;47633;51.494;5.386;2023-03-22T11:36:03;100598.03;;;19.51;46.32
61710;BME280;47633;51.494;5.386;2023-03-22T11:41:04;100590.34;;;19.58;45.90
61710;BME280;47633;51.494;5.386;2023-03-22T11:43:42;100601.06;;;19.56;45.81
61710;BME280;47633;51.494;5.386;2023-03-22T11:46:14;100592.19;;;19.57;45.91
61710;BME280;47633;51.494;5.386;2023-03-22T11:48:41;100586.88;;;19.57;46.07
61710;BME280;47633;51.494;5.386;2023-03-22T11:51:10;100589.25;;;19.51;45.83
61710;BME280;47633;51.494;5.386;2023-03-22T11:53:38;100591.91;;;19.51;46.32
61710;BME280;47633;51.494;5.386;2023-03-22T11:56:07;100594.56;;;19.51;46.43
61710;BME280;47633;51.494;5.386;2023-03-22T11:58:55;100578.56;;;19.52;46.32
61710;BME280;47633;51.494;5.386;2023-03-22T12:03:56;100567.69;;;19.55;46.08
61710;BME280;47633;51.494;5.386;2023-03-22T12:06:25;100567.97;;;19.52;45.86
61710;BME280;47633;51.494;5.386;2023-03-22T12:08:55;100564.19;;;19.55;45.96
61710;BME280;47633;51.494;5.386;2023-03-22T12:11:25;100561.28;;;19.58;45.80
61710;BME280;47633;51.494;5.386;2023-03-22T12:14:12;100558.66;;;19.48;46.09
61710;BME280;47633;51.494;5.386;2023-03-22T12:16:46;100562.97;;;19.49;45.97
61710;BME280;47633;51.494;5.386;2023-03-22T12:21:47;100571.03;;;19.48;46.15
61710;BME280;47633;51.494;5.386;2023-03-22T12:24:28;100568.69;;;19.45;46.11
61710;BME280;47633;51.494;5.386;2023-03-22T12:26:58;100563.53;;;19.43;46.06
61710;BME280;47633;51.494;5.386;2023-03-22T12:29:25;100567.13;;;19.42;45.99
61710;BME280;47633;51.494;5.386;2023-03-22T12:32:01;100567.28;;;19.40;46.01
61710;BME280;47633;51.494;5.386;2023-03-22T12:34:37;100570.91;;;19.39;46.19
61710;BME280;47633;51.494;5.386;2023-03-22T12:37:06;100562.84;;;19.41;46.04
61710;BME280;47633;51.494;5.386;2023-03-22T12:45:37;100568.13;;;19.41;45.93
61710;BME280;47633;51.494;5.386;2023-03-22T12:48:19;100570.91;;;19.39;45.78
61710;BME280;47633;51.494;5.386;2023-03-22T12:50:51;100570.19;;;19.37;45.77
61710;BME280;47633;51.494;5.386;2023-03-22T12:53:20;100566.72;;;19.37;45.67
61710;BME280;47633;51.494;5.386;2023-03-22T12:55:47;100568.28;;;19.39;45.80
61710;BME280;47633;51.494;5.386;2023-03-22T12:58:18;100572.00;;;19.37;45.76
61710;BME280;47633;51.494;5.386;2023-03-22T13:03:38;100574.78;;;19.35;45.56
61710;BME280;47633;51.494;5.386;2023-03-22T13:09:18;100569.38;;;19.37;45.92
61710;BME280;47633;51.494;5.386;2023-03-22T13:12:24;100569.66;;;19.34;45.84
61710;BME280;47633;51.494;5.386;2023-03-22T13:17:38;100560.22;;;19.31;46.19
61710;BME280;47633;51.494;5.386;2023-03-22T13:35:50;100556.88;;;19.49;45.22
61710;BME280;47633;51.494;5.386;2023-03-22T13:38:21;100553.09;;;19.51;44.99
61710;BME280;47633;51.494;5.386;2023-03-22T13:40:52;100551.56;;;19.49;45.31
61710;BME280;47633;51.494;5.386;2023-03-22T13:43:27;100544.63;;;19.48;45.08
61710;BME280;47633;51.494;5.386;2023-03-22T14:01:56;100550.59;;;19.40;45.06
61710;BME280;47633;51.494;5.386;2023-03-22T14:04:45;100543.38;;;19.32;45.31
61710;BME280;47633;51.494;5.386;2023-03-22T14:07:39;100549.06;;;19.28;45.42
61710;BME280;47633;51.494;5.386;2023-03-22T14:10:23;100551.03;;;19.26;45.76
61710;BME280;47633;51.494;5.386;2023-03-22T14:13:04;100549.47;;;19.23;45.82
61710;BME280;47633;51.494;5.386;2023-03-22T14:15:43;100548.50;;;19.24;45.68
61710;BME280;47633;51.494;5.386;2023-03-22T14:18:16;100546.84;;;19.23;45.91
61710;BME280;47633;51.494;5.386;2023-03-22T14:20:47;100545.03;;;19.24;45.96
61710;BME280;47633;51.494;5.386;2023-03-22T14:23:20;100540.88;;;19.21;46.21
61710;BME280;47633;51.494;5.386;2023-03-22T14:25:47;100534.75;;;19.30;45.81
61710;BME280;47633;51.494;5.386;2023-03-22T14:28:20;100526.13;;;19.38;45.79
61710;BME280;47633;51.494;5.386;2023-03-22T14:30:55;100526.13;;;19.38;45.53
61710;BME280;47633;51.494;5.386;2023-03-22T14:33:21;100520.84;;;19.38;45.72